Time;durP1;ratioP1;P1;durP2;ratioP2;P2;SDS_P1;SDS_P2;PMS_P1;PMS_P2;Temp;Humidity;BMP_temperature;BMP_pressure;BME280_temperature;BME280_humidity;BME280_pressure;Samples;Min_cycle;Max_cycle;Signal;HPM_P1;HPM_P2
2023/02/23 00:02:13;;;;;;;0.10;0.10;;;;;;;;;;4989394;28;20242;-68
2023/02/23 00:04:40;;;;;;;0.10;0.10;;;;;;;;;;4984283;28;20306;-68
2023/02/23 00:07:07;;;;;;;0.10;0.10;;;;;;;;;;4989209;28;20238;-68
2023/02/23 00:09:35;;;;;;;0.10;0.10;;;;;;;;;;4984253;28;20317;-68
2023/02/23 00:12:06;;;;;;;0.30;0.30;;;;;;;;;;4988619;28;20249;-68
2023/02/23 00:14:33;;;;;;;0.10;0.10;;;;;;;;;;4984790;28;20322;-68
2023/02/23 00:17:00;;;;;;;0.10;0.10;;;;;;;;;;4991334;28;20236;-68
2023/02/23 00:19:28;;;;;;;0.10;0.10;;;;;;;;;;4989187;28;20210;-68
2023/02/23 00:21:57;;;;;;;0.10;0.10;;;;;;;;;;4991371;28;20379;-69
2023/02/23 00:24:25;;;;;;;0.10;0.10;;;;;;;;;;4988927;28;20210;-68
2023/02/23 00:26:52;;;;;;;0.10;0.10;;;;;;;;;;4990806;28;20245;-68
2023/02/23 00:29:19;;;;;;;0.10;0.10;;;;;;;;;;4990120;28;20206;-68
2023/02/23 00:31:46;;;;;;;1.13;1.13;;;;;;;;;;4990188;28;20634;-68
2023/02/23 00:34:13;;;;;;;0.10;0.10;;;;;;;;;;4990112;28;20284;-68
2023/02/23 00:36:41;;;;;;;0.10;0.10;;;;;;;;;;4989287;28;20310;-68
2023/02/23 00:39:21;;;;;;;0.10;0.10;;;;;;;;;;4990949;28;20238;-69
2023/02/23 00:41:47;;;;;;;0.10;0.10;;;;;;;;;;4990316;28;20266;-68
2023/02/23 00:44:14;;;;;;;0.10;0.10;;;;;;;;;;4990295;28;20285;-67
2023/02/23 00:46:42;;;;;;;0.10;0.10;;;;;;;;;;4989288;28;20565;-67
2023/02/23 00:49:09;;;;;;;0.10;0.10;;;;;;;;;;4990389;28;20207;-66
2023/02/23 00:51:36;;;;;;;0.10;0.10;;;;;;;;;;4988583;28;20274;-67
2023/02/23 00:54:04;;;;;;;0.10;0.10;;;;;;;;;;4991487;28;20489;-68
2023/02/23 00:56:30;;;;;;;0.10;0.10;;;;;;;;;;4987946;28;20244;-68
2023/02/23 00:58:56;;;;;;;0.10;0.10;;;;;;;;;;4992028;28;20275;-68
2023/02/23 01:01:23;;;;;;;3.43;3.23;;;;;;;;;;4986930;28;20304;-68
2023/02/23 01:03:51;;;;;;;0.20;0.20;;;;;;;;;;4992401;28;20278;-68
2023/02/23 01:06:20;;;;;;;0.10;0.10;;;;;;;;;;4986126;28;20277;-68
2023/02/23 01:08:48;;;;;;;0.10;0.10;;;;;;;;;;4993104;28;20233;-68
2023/02/23 01:11:17;;;;;;;0.10;0.10;;;;;;;;;;4985737;28;20238;-68
2023/02/23 01:13:45;;;;;;;0.10;0.10;;;;;;;;;;4993355;28;20210;-68
2023/02/23 01:16:13;;;;;;;0.10;0.10;;;;;;;;;;4985151;28;20252;-68
2023/02/23 01:18:40;;;;;;;0.10;0.10;;;;;;;;;;4993872;28;20206;-68
2023/02/23 01:21:14;;;;;;;0.20;0.20;;;;;;;;;;4984509;28;20462;-68
2023/02/23 01:23:40;;;;;;;0.10;0.10;;;;;;;;;;4993673;28;20277;-68
2023/02/23 01:26:12;;;;;;;0.10;0.10;;;;;;;;;;4983715;28;20264;-68
2023/02/23 01:28:39;;;;;;;0.10;0.10;;;;;;;;;;4993877;28;20237;-68
2023/02/23 01:31:08;;;;;;;0.10;0.10;;;;;;;;;;4984096;28;20265;-68
2023/02/23 01:33:34;;;;;;;0.20;0.20;;;;;;;;;;4994109;28;20277;-68
2023/02/23 01:36:00;;;;;;;0.10;0.10;;;;;;;;;;4983469;28;20277;-68
2023/02/23 01:38:27;;;;;;;0.10;0.10;;;;;;;;;;4995079;28;20237;-68
2023/02/23 01:40:53;;;;;;;0.10;0.10;;;;;;;;;;4982465;28;20319;-68
2023/02/23 01:43:24;;;;;;;0.20;0.20;;;;;;;;;;4995883;28;20279;-68
2023/02/23 01:45:54;;;;;;;0.10;0.10;;;;;;;;;;4981823;28;20245;-68
2023/02/23 01:48:21;;;;;;;0.10;0.10;;;;;;;;;;4995648;28;20237;-68
2023/02/23 01:50:51;;;;;;;0.10;0.10;;;;;;;;;;4981371;28;20304;-68
2023/02/23 01:53:20;;;;;;;0.10;0.10;;;;;;;;;;4995922;28;20429;-68
2023/02/23 01:55:48;;;;;;;0.47;0.47;;;;;;;;;;4980971;28;20251;-68
2023/02/23 01:58:18;;;;;;;0.10;0.10;;;;;;;;;;4996290;28;20495;-68
2023/02/23 02:00:47;;;;;;;0.10;0.10;;;;;;;;;;4980980;28;20260;-68
2023/02/23 02:03:18;;;;;;;0.10;0.10;;;;;;;;;;4995963;28;20529;-68
2023/02/23 02:05:45;;;;;;;0.20;0.20;;;;;;;;;;4980921;28;20555;-68
2023/02/23 02:08:12;;;;;;;0.10;0.10;;;;;;;;;;4996113;28;20228;-68
2023/02/23 02:10:45;;;;;;;0.10;0.10;;;;;;;;;;4979758;28;20305;-68
2023/02/23 02:13:14;;;;;;;0.10;0.10;;;;;;;;;;4996385;28;20404;-68
2023/02/23 02:15:52;;;;;;;0.10;0.10;;;;;;;;;;4979991;28;20553;-68
2023/02/23 02:18:26;;;;;;;0.10;0.10;;;;;;;;;;4995365;28;20205;-68
2023/02/23 02:21:22;;;;;;;0.10;0.10;;;;;;;;;;4981613;28;20313;-68
2023/02/23 02:24:07;;;;;;;0.10;0.10;;;;;;;;;;4964509;29;20303;-68
2023/02/23 02:26:38;;;;;;;0.10;0.10;;;;;;;;;;4983963;28;20241;-68
2023/02/23 02:29:19;;;;;;;0.10;0.10;;;;;;;;;;4989001;28;20333;-68
2023/02/23 02:31:55;;;;;;;0.10;0.10;;;;;;;;;;4975433;28;20276;-68
2023/02/23 02:34:48;;;;;;;0.10;0.10;;;;;;;;;;4987263;28;20229;-68
2023/02/23 02:37:19;;;;;;;0.10;0.10;;;;;;;;;;4990453;28;20320;-68
2023/02/23 02:39:52;;;;;;;0.10;0.10;;;;;;;;;;4984549;28;20197;-68
2023/02/23 02:42:22;;;;;;;0.10;0.10;;;;;;;;;;4990433;28;20241;-68
2023/02/23 02:44:51;;;;;;;0.10;0.10;;;;;;;;;;4985526;28;20556;-68
2023/02/23 02:47:19;;;;;;;0.10;0.10;;;;;;;;;;4990335;28;20628;-68
2023/02/23 02:49:51;;;;;;;0.10;0.10;;;;;;;;;;4985377;28;20636;-68
2023/02/23 02:52:22;;;;;;;0.10;0.10;;;;;;;;;;4990261;28;20700;-68
2023/02/23 02:54:52;;;;;;;0.10;0.10;;;;;;;;;;4985395;28;20230;-68
2023/02/23 02:57:20;;;;;;;0.10;0.10;;;;;;;;;;4990258;28;20268;-68
2023/02/23 04:19:51;;;;;;;0.10;0.10;;;;;;;;;;4988219;28;20206;-68
2023/02/23 04:22:17;;;;;;;0.10;0.10;;;;;;;;;;4993072;28;20241;-68
2023/02/23 04:24:45;;;;;;;0.10;0.10;;;;;;;;;;4987767;28;20209;-68
2023/02/23 04:27:11;;;;;;;0.10;0.10;;;;;;;;;;4992995;28;20242;-68
2023/02/23 04:29:37;;;;;;;0.10;0.10;;;;;;;;;;4987961;28;20564;-68
2023/02/23 04:32:05;;;;;;;0.10;0.10;;;;;;;;;;4992525;28;20238;-68
2023/02/23 04:34:32;;;;;;;8.73;8.30;;;;;;;;;;4987805;28;20277;-68
2023/02/23 04:36:58;;;;;;;0.10;0.10;;;;;;;;;;4991674;28;20310;-68
2023/02/23 04:39:25;;;;;;;0.37;0.37;;;;;;;;;;4989158;28;20241;-69
2023/02/23 04:41:51;;;;;;;0.10;0.10;;;;;;;;;;4990713;28;20249;-68
2023/02/23 04:44:17;;;;;;;0.10;0.10;;;;;;;;;;4989940;28;20337;-68
2023/02/23 04:46:44;;;;;;;0.10;0.10;;;;;;;;;;4989618;28;20345;-68
2023/02/23 04:49:11;;;;;;;0.10;0.10;;;;;;;;;;4990605;28;20294;-68
2023/02/23 04:51:38;;;;;;;0.10;0.10;;;;;;;;;;4988846;28;20241;-68
2023/02/23 04:54:05;;;;;;;0.10;0.10;;;;;;;;;;4991435;28;20278;-68
2023/02/23 04:56:31;;;;;;;0.10;0.10;;;;;;;;;;4987831;28;20244;-68
2023/02/23 04:58:58;;;;;;;0.17;0.17;;;;;;;;;;4991528;28;20202;-68
2023/02/23 05:01:25;;;;;;;0.10;0.10;;;;;;;;;;4985864;28;20248;-68
2023/02/23 05:03:52;;;;;;;0.10;0.10;;;;;;;;;;4992509;28;20473;-68
2023/02/23 05:06:19;;;;;;;0.10;0.10;;;;;;;;;;4984805;28;20278;-68
2023/02/23 05:08:46;;;;;;;0.10;0.10;;;;;;;;;;4994350;28;20272;-68
2023/02/23 05:11:12;;;;;;;0.10;0.10;;;;;;;;;;4985213;28;20317;-68
2023/02/23 05:13:39;;;;;;;0.10;0.10;;;;;;;;;;4994048;28;20278;-68
2023/02/23 05:16:05;;;;;;;0.10;0.10;;;;;;;;;;4984116;28;20242;-68
2023/02/23 05:18:32;;;;;;;0.10;0.10;;;;;;;;;;4994919;28;20273;-68
2023/02/23 05:21:01;;;;;;;0.10;0.10;;;;;;;;;;4983448;28;20243;-69
2023/02/23 05:23:29;;;;;;;0.10;0.10;;;;;;;;;;4995231;28;20273;-68
2023/02/23 05:25:59;;;;;;;0.10;0.10;;;;;;;;;;4982303;28;20256;-74
2023/02/23 05:28:26;;;;;;;0.20;0.20;;;;;;;;;;4995684;28;20234;-69
2023/02/23 05:30:52;;;;;;;0.10;0.10;;;;;;;;;;4981764;28;20310;-68
2023/02/23 05:33:20;;;;;;;0.10;0.10;;;;;;;;;;4996411;28;20217;-68
2023/02/23 05:35:47;;;;;;;0.10;0.10;;;;;;;;;;4981274;28;20438;-68
2023/02/23 05:38:13;;;;;;;0.13;0.13;;;;;;;;;;4997050;28;20241;-68
2023/02/23 05:40:41;;;;;;;0.10;0.10;;;;;;;;;;4980446;28;20461;-68
2023/02/23 05:43:07;;;;;;;0.20;0.20;;;;;;;;;;4997901;28;20539;-68
2023/02/23 05:45:34;;;;;;;0.10;0.10;;;;;;;;;;4979286;28;20287;-68
2023/02/23 05:48:00;;;;;;;0.10;0.10;;;;;;;;;;4998668;28;20276;-68
2023/02/23 05:50:26;;;;;;;0.10;0.10;;;;;;;;;;4978064;28;20206;-67
2023/02/23 05:52:53;;;;;;;0.47;0.47;;;;;;;;;;4999623;28;20483;-68
2023/02/23 05:55:19;;;;;;;0.10;0.10;;;;;;;;;;4977438;28;20397;-67
2023/02/23 05:57:47;;;;;;;0.10;0.10;;;;;;;;;;5000287;28;20446;-68
2023/02/23 06:00:13;;;;;;;0.10;0.10;;;;;;;;;;4986057;28;20314;-68
2023/02/23 06:02:40;;;;;;;0.30;0.30;;;;;;;;;;4974937;28;20285;-68
2023/02/23 06:05:07;;;;;;;0.10;0.10;;;;;;;;;;4983867;28;20283;-68
2023/02/23 06:07:33;;;;;;;0.27;0.27;;;;;;;;;;5001140;28;20257;-68
2023/02/23 06:10:00;;;;;;;1.70;1.70;;;;;;;;;;4985817;28;20256;-67
2023/02/23 06:12:26;;;;;;;4.00;3.80;;;;;;;;;;4991142;28;20268;-67
2023/02/23 06:14:54;;;;;;;0.10;0.10;;;;;;;;;;4986068;28;20465;-68
2023/02/23 06:17:20;;;;;;;0.10;0.10;;;;;;;;;;4990975;28;20307;-67
2023/02/23 06:19:46;;;;;;;0.23;0.23;;;;;;;;;;4985934;28;20246;-67
2023/02/23 06:22:13;;;;;;;0.10;0.10;;;;;;;;;;4990875;28;20243;-68
2023/02/23 06:24:39;;;;;;;0.10;0.10;;;;;;;;;;4985622;28;20248;-67
2023/02/23 06:27:06;;;;;;;0.10;0.10;;;;;;;;;;4990613;28;20317;-67
2023/02/23 06:29:32;;;;;;;0.10;0.10;;;;;;;;;;4986134;28;20235;-67
2023/02/23 06:32:00;;;;;;;0.10;0.10;;;;;;;;;;4989640;28;20255;-69
2023/02/23 06:34:26;;;;;;;0.10;0.10;;;;;;;;;;4986906;28;20212;-67
2023/02/23 06:36:52;;;;;;;0.17;0.17;;;;;;;;;;4988574;28;20264;-67
2023/02/23 06:39:19;;;;;;;0.10;0.10;;;;;;;;;;4987052;28;20233;-68
2023/02/23 06:41:45;;;;;;;0.10;0.10;;;;;;;;;;4987720;28;20571;-68
2023/02/23 06:44:11;;;;;;;0.10;0.10;;;;;;;;;;4988393;28;20214;-68
2023/02/23 06:46:38;;;;;;;0.10;0.10;;;;;;;;;;4986633;28;20303;-68
2023/02/23 06:49:06;;;;;;;0.10;0.10;;;;;;;;;;4988911;28;20301;-68
2023/02/23 06:51:32;;;;;;;0.10;0.10;;;;;;;;;;4985928;28;20608;-68
2023/02/23 06:53:58;;;;;;;0.20;0.20;;;;;;;;;;4989434;28;20540;-67
2023/02/23 06:56:25;;;;;;;0.10;0.10;;;;;;;;;;4984858;28;20521;-67
2023/02/23 06:58:51;;;;;;;0.10;0.10;;;;;;;;;;4990450;28;20203;-73
2023/02/23 07:01:21;;;;;;;0.10;0.10;;;;;;;;;;4983942;28;20253;-68
2023/02/23 07:03:47;;;;;;;0.10;0.10;;;;;;;;;;4990466;28;20561;-68
2023/02/23 07:06:15;;;;;;;0.10;0.10;;;;;;;;;;4983394;28;20525;-68
2023/02/23 07:08:41;;;;;;;3.20;3.10;;;;;;;;;;4991415;28;20245;-68
2023/02/23 07:11:08;;;;;;;0.10;0.10;;;;;;;;;;4982499;28;20312;-68
2023/02/23 07:13:34;;;;;;;0.10;0.10;;;;;;;;;;4992516;28;20246;-68
2023/02/23 07:16:00;;;;;;;0.10;0.10;;;;;;;;;;4981667;28;20612;-68
2023/02/23 07:18:27;;;;;;;0.10;0.10;;;;;;;;;;4993440;28;20455;-68
2023/02/23 07:20:53;;;;;;;0.10;0.10;;;;;;;;;;4980560;28;20241;-67
2023/02/23 07:23:22;;;;;;;0.10;0.10;;;;;;;;;;4994043;28;20209;-68
2023/02/23 07:25:49;;;;;;;0.10;0.10;;;;;;;;;;4979358;28;20257;-68
2023/02/23 07:28:16;;;;;;;0.10;0.10;;;;;;;;;;4994530;28;20273;-68
2023/02/23 07:30:42;;;;;;;0.10;0.10;;;;;;;;;;4979190;28;20551;-67
2023/02/23 07:33:09;;;;;;;0.10;0.10;;;;;;;;;;4995406;28;20384;-68
2023/02/23 07:35:35;;;;;;;0.10;0.10;;;;;;;;;;4978028;28;20262;-68
2023/02/23 07:38:01;;;;;;;0.10;0.10;;;;;;;;;;4996110;28;20298;-68
2023/02/23 07:40:29;;;;;;;0.10;0.10;;;;;;;;;;4977569;28;20606;-67
2023/02/23 07:42:55;;;;;;;0.10;0.10;;;;;;;;;;4996827;28;20278;-68
2023/02/23 07:45:23;;;;;;;0.10;0.10;;;;;;;;;;4976339;28;20278;-67
2023/02/23 07:47:51;;;;;;;0.10;0.10;;;;;;;;;;4997611;28;20214;-68
2023/02/23 07:50:17;;;;;;;0.10;0.10;;;;;;;;;;4975865;28;20222;-68
2023/02/23 07:52:44;;;;;;;0.10;0.10;;;;;;;;;;4998211;28;20239;-67
2023/02/23 07:55:11;;;;;;;0.10;0.10;;;;;;;;;;4975106;28;20214;-68
2023/02/23 07:57:38;;;;;;;0.10;0.10;;;;;;;;;;4999283;28;20207;-68
2023/02/23 08:00:05;;;;;;;0.10;0.10;;;;;;;;;;4984309;28;20242;-68
2023/02/23 08:02:32;;;;;;;0.10;0.10;;;;;;;;;;4973369;28;20291;-67
2023/02/23 08:04:58;;;;;;;0.10;0.10;;;;;;;;;;4984195;28;20398;-68
2023/02/23 08:07:25;;;;;;;0.10;0.10;;;;;;;;;;4989320;28;20272;-68
2023/02/23 08:09:52;;;;;;;0.10;0.10;;;;;;;;;;4984218;28;20231;-67
2023/02/23 08:12:18;;;;;;;0.10;0.10;;;;;;;;;;4989570;28;20246;-67
2023/02/23 08:14:46;;;;;;;0.10;0.10;;;;;;;;;;4984119;28;20213;-70
2023/02/23 08:17:12;;;;;;;0.10;0.10;;;;;;;;;;4989274;28;20249;-67
2023/02/23 08:19:39;;;;;;;0.10;0.10;;;;;;;;;;4984326;28;20235;-70
2023/02/23 08:22:06;;;;;;;0.10;0.10;;;;;;;;;;4989116;28;20255;-71
2023/02/23 08:24:32;;;;;;;0.10;0.10;;;;;;;;;;4984804;28;20220;-71
2023/02/23 08:26:59;;;;;;;0.10;0.10;;;;;;;;;;4986753;28;20244;-70
2023/02/23 08:29:25;;;;;;;0.10;0.10;;;;;;;;;;4986801;28;20272;-70
2023/02/23 08:31:54;;;;;;;0.10;0.10;;;;;;;;;;4986515;28;20311;-70
2023/02/23 08:34:21;;;;;;;0.10;0.10;;;;;;;;;;4986557;28;20237;-71
2023/02/23 08:36:48;;;;;;;0.10;0.10;;;;;;;;;;4987664;28;20263;-70
2023/02/23 08:39:14;;;;;;;0.10;0.10;;;;;;;;;;4990435;28;20235;-71
2023/02/23 08:41:41;;;;;;;0.10;0.10;;;;;;;;;;4989426;28;20267;-70
2023/02/23 08:44:08;;;;;;;0.10;0.10;;;;;;;;;;4990649;28;20277;-70
2023/02/23 08:46:34;;;;;;;0.10;0.10;;;;;;;;;;4988458;28;20280;-62
2023/02/23 08:49:03;;;;;;;0.10;0.10;;;;;;;;;;4991845;28;20274;-65
2023/02/23 08:51:29;;;;;;;0.83;0.83;;;;;;;;;;4987972;28;20480;-68
2023/02/23 08:53:56;;;;;;;0.10;0.10;;;;;;;;;;4992342;28;20541;-63
2023/02/23 08:56:24;;;;;;;0.10;0.10;;;;;;;;;;4986697;28;20629;-64
2023/02/23 08:58:51;;;;;;;0.10;0.10;;;;;;;;;;4992788;28;20278;-66
2023/02/23 09:01:18;;;;;;;0.10;0.10;;;;;;;;;;4986196;28;20441;-71
2023/02/23 09:03:44;;;;;;;0.17;0.17;;;;;;;;;;4993275;28;20306;-61
2023/02/23 09:06:13;;;;;;;24.53;11.40;;;;;;;;;;4985374;28;20296;-62
2023/02/23 09:08:39;;;;;;;17.37;9.83;;;;;;;;;;4994087;28;20222;-75
2023/02/23 09:11:06;;;;;;;0.57;0.57;;;;;;;;;;4984526;28;20260;-75
2023/02/23 09:13:32;;;;;;;4.23;4.03;;;;;;;;;;4995060;28;20274;-74
2023/02/23 09:15:59;;;;;;;6.67;6.40;;;;;;;;;;4983478;28;20358;-64
2023/02/23 09:18:26;;;;;;;1.67;1.67;;;;;;;;;;4995611;28;20280;-69
2023/02/23 09:20:53;;;;;;;11.87;10.93;;;;;;;;;;4982910;28;20486;-73
2023/02/23 09:23:22;;;;;;;3.57;3.27;;;;;;;;;;4996412;28;20232;-65
2023/02/23 09:25:48;;;;;;;0.60;0.60;;;;;;;;;;4981776;28;20316;-73
2023/02/23 09:28:16;;;;;;;3.70;3.50;;;;;;;;;;4997161;28;20285;-74
2023/02/23 09:30:42;;;;;;;2.60;2.50;;;;;;;;;;4981188;28;20311;-74
2023/02/23 09:33:09;;;;;;;1.03;1.03;;;;;;;;;;4997477;28;20543;-75
2023/02/23 09:35:36;;;;;;;0.65;0.65;;;;;;;;;;4980367;28;20294;-74
2023/02/23 09:38:03;;;;;;;0.00;0.00;;;;;;;;;;4998323;28;20422;-70
2023/02/23 09:40:38;;;;;;;0.00;0.00;;;;;;;;;;4979376;28;20249;-64
2023/02/23 09:43:06;;;;;;;0.10;0.10;;;;;;;;;;4997892;28;20281;-63
2023/02/23 09:45:35;;;;;;;0.97;0.97;;;;;;;;;;4979655;28;20299;-74
2023/02/23 09:48:08;;;;;;;0.13;0.13;;;;;;;;;;4997886;28;20206;-74
2023/02/23 09:50:36;;;;;;;1.33;1.33;;;;;;;;;;4979945;28;20506;-73
2023/02/23 09:53:04;;;;;;;13.18;11.32;;;;;;;;;;4998069;28;20207;-73
2023/02/23 09:55:33;;;;;;;0.10;0.10;;;;;;;;;;4979815;28;20245;-73
2023/02/23 09:58:05;;;;;;;0.22;0.22;;;;;;;;;;4998415;28;20282;-75
2023/02/23 10:00:36;;;;;;;0.10;0.10;;;;;;;;;;4979500;28;20250;-71
2023/02/23 10:03:13;;;;;;;0.10;0.10;;;;;;;;;;4997522;28;20207;-73
2023/02/23 10:05:42;;;;;;;0.10;0.10;;;;;;;;;;4980162;28;20248;-73
2023/02/23 10:08:13;;;;;;;0.10;0.10;;;;;;;;;;4997013;28;20208;-74
2023/02/23 10:10:44;;;;;;;0.10;0.10;;;;;;;;;;4980022;28;20268;-74
2023/02/23 10:13:15;;;;;;;0.10;0.10;;;;;;;;;;4996689;28;20279;-75
2023/02/23 10:15:49;;;;;;;0.10;0.10;;;;;;;;;;4980628;28;20575;-74
2023/02/23 10:18:20;;;;;;;0.10;0.10;;;;;;;;;;4995613;28;20266;-74
2023/02/23 10:20:52;;;;;;;0.10;0.10;;;;;;;;;;4980967;28;20245;-74
2023/02/23 10:23:23;;;;;;;0.10;0.10;;;;;;;;;;4995318;28;20239;-75
2023/02/23 10:25:51;;;;;;;0.10;0.10;;;;;;;;;;4980929;28;20292;-75
2023/02/23 10:28:22;;;;;;;0.05;0.05;;;;;;;;;;4995141;28;20283;-74
2023/02/23 10:30:49;;;;;;;0.05;0.05;;;;;;;;;;4980480;28;20247;-74
2023/02/23 10:33:21;;;;;;;0.00;0.00;;;;;;;;;;4995576;28;20243;-75
2023/02/23 10:35:48;;;;;;;0.10;0.10;;;;;;;;;;4980719;28;20243;-75
2023/02/23 10:38:18;;;;;;;0.00;0.00;;;;;;;;;;4995120;28;20239;-75
2023/02/23 10:40:46;;;;;;;0.10;0.10;;;;;;;;;;4980208;28;20560;-75
2023/02/23 10:43:14;;;;;;;0.10;0.10;;;;;;;;;;4995609;28;20298;-75
2023/02/23 10:45:43;;;;;;;0.10;0.10;;;;;;;;;;4979476;28;20240;-75
2023/02/23 10:48:16;;;;;;;0.08;0.08;;;;;;;;;;4995719;28;20380;-75
2023/02/23 10:50:44;;;;;;;0.10;0.10;;;;;;;;;;4979565;28;20310;-75
2023/02/23 10:53:15;;;;;;;0.10;0.10;;;;;;;;;;4995818;28;20440;-75
2023/02/23 10:55:43;;;;;;;0.10;0.10;;;;;;;;;;4979135;28;20463;-75
2023/02/23 10:58:15;;;;;;;0.10;0.10;;;;;;;;;;4995911;28;20281;-75
2023/02/23 11:00:50;;;;;;;0.08;0.08;;;;;;;;;;4978953;28;20253;-76
2023/02/23 11:03:18;;;;;;;0.10;0.10;;;;;;;;;;4994744;28;20240;-77
2023/02/23 11:05:46;;;;;;;0.10;0.10;;;;;;;;;;4979665;28;20242;-76
2023/02/23 11:08:21;;;;;;;0.10;0.10;;;;;;;;;;4995324;28;20498;-76
2023/02/23 11:11:00;;;;;;;0.10;0.10;;;;;;;;;;4980179;28;20244;-76
2023/02/23 11:13:27;;;;;;;0.00;0.00;;;;;;;;;;4993491;28;20214;-76
2023/02/23 11:16:00;;;;;;;0.00;0.00;;;;;;;;;;4981001;28;20308;-62
2023/02/23 11:18:27;;;;;;;0.10;0.10;;;;;;;;;;4993547;28;20551;-61
2023/02/23 11:20:56;;;;;;;0.10;0.10;;;;;;;;;;4980912;28;20249;-61
2023/02/23 11:23:27;;;;;;;0.05;0.05;;;;;;;;;;4993883;28;20239;-61
2023/02/23 11:25:55;;;;;;;0.10;0.10;;;;;;;;;;4979968;28;20506;-61
2023/02/23 11:28:24;;;;;;;0.10;0.10;;;;;;;;;;4994430;28;20237;-61
2023/02/23 11:30:51;;;;;;;0.00;0.00;;;;;;;;;;4979551;28;20245;-61
2023/02/23 11:33:21;;;;;;;0.03;0.03;;;;;;;;;;4995080;28;20566;-61
2023/02/23 11:35:47;;;;;;;0.00;0.00;;;;;;;;;;4979177;28;20253;-61
2023/02/23 11:38:22;;;;;;;0.10;0.10;;;;;;;;;;4995152;28;20280;-61
2023/02/23 11:40:58;;;;;;;0.03;0.03;;;;;;;;;;4979156;28;20254;-61
2023/02/23 11:43:24;;;;;;;0.08;0.08;;;;;;;;;;4994085;28;20208;-74
2023/02/23 11:45:51;;;;;;;0.10;0.10;;;;;;;;;;4979539;28;20448;-75
2023/02/23 11:48:22;;;;;;;0.00;0.00;;;;;;;;;;4994863;28;20530;-75
2023/02/23 11:50:49;;;;;;;0.10;0.10;;;;;;;;;;4979117;28;20475;-75
2023/02/23 11:53:17;;;;;;;0.05;0.05;;;;;;;;;;4995149;28;20233;-75
2023/02/23 11:55:47;;;;;;;0.10;0.10;;;;;;;;;;4978374;28;20361;-75
2023/02/23 11:58:23;;;;;;;0.00;0.00;;;;;;;;;;4995211;28;20530;-75
2023/02/23 12:00:56;;;;;;;3.33;3.13;;;;;;;;;;4979378;28;20243;-75
2023/02/23 12:03:33;;;;;;;0.10;0.10;;;;;;;;;;4993529;28;20312;-70
2023/02/23 12:06:01;;;;;;;0.00;0.00;;;;;;;;;;4981142;28;20249;-68
2023/02/23 12:08:34;;;;;;;0.03;0.03;;;;;;;;;;4992596;28;20213;-70
2023/02/23 12:11:03;;;;;;;0.05;0.05;;;;;;;;;;4982495;28;20399;-71
2023/02/23 12:13:31;;;;;;;0.10;0.10;;;;;;;;;;4996223;28;20533;-68
2023/02/23 12:15:59;;;;;;;0.10;0.10;;;;;;;;;;4984713;28;20243;-69
2023/02/23 12:18:37;;;;;;;0.55;0.55;;;;;;;;;;4996739;28;20231;-68
2023/02/23 12:21:08;;;;;;;0.10;0.10;;;;;;;;;;4985256;28;20261;-68
2023/02/23 12:23:36;;;;;;;0.10;0.10;;;;;;;;;;4995663;28;20238;-68
2023/02/23 12:26:05;;;;;;;0.00;0.00;;;;;;;;;;4985004;28;20296;-67
2023/02/23 12:28:33;;;;;;;0.00;0.00;;;;;;;;;;4995974;28;20208;-67
2023/02/23 12:31:01;;;;;;;0.00;0.00;;;;;;;;;;4984465;28;20613;-68
2023/02/23 12:33:33;;;;;;;0.10;0.10;;;;;;;;;;4995896;28;20282;-70
2023/02/23 12:36:03;;;;;;;0.10;0.10;;;;;;;;;;4984392;28;20306;-68
2023/02/23 12:38:33;;;;;;;0.00;0.00;;;;;;;;;;4995981;28;20220;-68
2023/02/23 12:41:06;;;;;;;0.00;0.00;;;;;;;;;;4984081;28;20312;-69
2023/02/23 12:43:37;;;;;;;0.10;0.10;;;;;;;;;;4995394;28;20524;-70
2023/02/23 12:46:07;;;;;;;0.03;0.03;;;;;;;;;;4984587;28;20266;-69
2023/02/23 12:48:38;;;;;;;0.00;0.00;;;;;;;;;;4995219;28;20241;-71
2023/02/23 12:51:12;;;;;;;0.10;0.10;;;;;;;;;;4984670;28;20318;-71
2023/02/23 12:53:40;;;;;;;0.00;0.00;;;;;;;;;;4994444;28;20295;-71
2023/02/23 12:56:14;;;;;;;0.10;0.10;;;;;;;;;;4984740;28;20257;-69
2023/02/23 12:58:47;;;;;;;0.00;0.00;;;;;;;;;;4994162;28;20277;-69
2023/02/23 13:01:17;;;;;;;0.20;0.20;;;;;;;;;;4985508;28;20239;-66
2023/02/23 13:03:48;;;;;;;0.10;0.10;;;;;;;;;;4993475;28;20238;-70
2023/02/23 13:06:20;;;;;;;0.10;0.10;;;;;;;;;;4985672;28;20262;-70
2023/02/23 13:08:55;;;;;;;0.00;0.00;;;;;;;;;;4993235;28;20211;-72
2023/02/23 13:11:27;;;;;;;0.05;0.05;;;;;;;;;;4986564;28;20238;-71
2023/02/23 13:13:55;;;;;;;0.10;0.10;;;;;;;;;;4992448;28;20235;-71
2023/02/23 13:16:25;;;;;;;0.00;0.00;;;;;;;;;;4986435;28;20313;-71
2023/02/23 13:18:58;;;;;;;0.10;0.10;;;;;;;;;;4992466;28;20236;-72
2023/02/23 13:21:30;;;;;;;0.05;0.05;;;;;;;;;;4986577;28;20343;-70
2023/02/23 13:24:01;;;;;;;0.10;0.10;;;;;;;;;;4991168;28;20230;-69
2023/02/23 13:26:30;;;;;;;0.10;0.10;;;;;;;;;;4987032;28;20522;-70
2023/02/23 13:28:59;;;;;;;0.10;0.10;;;;;;;;;;4991715;28;20258;-69
2023/02/23 13:31:26;;;;;;;0.10;0.10;;;;;;;;;;4986488;28;20279;-70
2023/02/23 13:33:54;;;;;;;0.10;0.10;;;;;;;;;;4992096;28;20217;-70
2023/02/23 13:36:21;;;;;;;0.10;0.10;;;;;;;;;;4985970;28;20242;-70
2023/02/23 13:38:59;;;;;;;0.10;0.10;;;;;;;;;;4992701;28;20249;-70
2023/02/23 13:41:33;;;;;;;0.10;0.10;;;;;;;;;;4986360;28;20246;-69
2023/02/23 13:44:01;;;;;;;0.10;0.10;;;;;;;;;;4991180;28;20483;-70
2023/02/23 13:46:33;;;;;;;0.10;0.10;;;;;;;;;;4986713;28;20244;-71
2023/02/23 13:49:03;;;;;;;0.10;0.10;;;;;;;;;;4990498;28;20273;-71
2023/02/23 13:51:34;;;;;;;0.00;0.00;;;;;;;;;;4986633;28;20294;-71
2023/02/23 13:54:04;;;;;;;0.10;0.10;;;;;;;;;;4990689;28;20281;-71
2023/02/23 13:56:32;;;;;;;0.10;0.10;;;;;;;;;;4986867;28;20460;-71
2023/02/23 13:59:00;;;;;;;0.10;0.10;;;;;;;;;;4990937;28;20211;-71
2023/02/23 14:01:29;;;;;;;0.10;0.10;;;;;;;;;;4986193;28;20238;-71
2023/02/23 14:03:56;;;;;;;0.10;0.10;;;;;;;;;;4990621;28;20309;-71
2023/02/23 14:06:24;;;;;;;0.10;0.10;;;;;;;;;;4985483;28;20320;-71
2023/02/23 14:08:55;;;;;;;0.10;0.10;;;;;;;;;;4991786;28;20438;-72
2023/02/23 14:11:31;;;;;;;0.05;0.05;;;;;;;;;;4984788;28;20240;-72
2023/02/23 14:13:59;;;;;;;0.10;0.10;;;;;;;;;;4990999;28;20399;-72
2023/02/23 14:16:25;;;;;;;0.13;0.13;;;;;;;;;;4985593;28;20273;-71
2023/02/23 14:19:06;;;;;;;0.10;0.10;;;;;;;;;;4991408;28;20235;-72
2023/02/23 14:21:34;;;;;;;0.10;0.10;;;;;;;;;;4986584;28;20238;-71
2023/02/23 14:24:05;;;;;;;0.10;0.10;;;;;;;;;;4990182;28;20207;-72
2023/02/23 14:26:37;;;;;;;0.10;0.10;;;;;;;;;;4986205;28;20253;-71
2023/02/23 14:29:25;;;;;;;0.10;0.10;;;;;;;;;;4989552;28;20213;-72
2023/02/23 14:32:02;;;;;;;0.07;0.07;;;;;;;;;;4983752;28;20264;-72
2023/02/23 14:34:48;;;;;;;0.10;0.10;;;;;;;;;;4985601;28;20213;-71
2023/02/23 14:37:16;;;;;;;0.10;0.10;;;;;;;;;;4990757;28;20316;-71
2023/02/23 14:39:43;;;;;;;0.00;0.00;;;;;;;;;;4985654;28;20242;-71
2023/02/23 14:42:20;;;;;;;0.10;0.10;;;;;;;;;;4990449;28;20304;-71
2023/02/23 14:44:50;;;;;;;0.10;0.10;;;;;;;;;;4985246;28;20232;-71
2023/02/23 14:47:18;;;;;;;0.10;0.10;;;;;;;;;;4990473;28;20424;-72
2023/02/23 14:49:45;;;;;;;0.10;0.10;;;;;;;;;;4985515;28;20217;-72
2023/02/23 14:52:14;;;;;;;0.07;0.07;;;;;;;;;;4990282;28;20307;-72
2023/02/23 14:54:41;;;;;;;0.10;0.10;;;;;;;;;;4985513;28;20457;-71
2023/02/23 14:57:17;;;;;;;0.10;0.10;;;;;;;;;;4990357;28;20487;-70
2023/02/23 14:59:45;;;;;;;0.00;0.00;;;;;;;;;;4985395;28;20231;-71
2023/02/23 15:02:16;;;;;;;0.10;0.10;;;;;;;;;;4990266;28;20327;-70
2023/02/23 15:04:42;;;;;;;0.10;0.10;;;;;;;;;;4985020;28;20267;-71
2023/02/23 15:07:17;;;;;;;0.10;0.10;;;;;;;;;;4990053;28;20306;-72
2023/02/23 15:09:43;;;;;;;0.10;0.10;;;;;;;;;;4984991;28;20196;-71
2023/02/23 15:12:13;;;;;;;0.10;0.10;;;;;;;;;;4989888;28;20252;-71
2023/02/23 15:14:40;;;;;;;0.10;0.10;;;;;;;;;;4985231;28;20239;-71
2023/02/23 15:17:14;;;;;;;0.10;0.10;;;;;;;;;;4989962;28;20249;-71
2023/02/23 15:19:41;;;;;;;0.10;0.10;;;;;;;;;;4984894;28;20197;-73
2023/02/23 15:22:07;;;;;;;0.10;0.10;;;;;;;;;;4989923;28;20449;-71
2023/02/23 15:24:41;;;;;;;0.10;0.10;;;;;;;;;;4984827;28;20241;-71
2023/02/23 15:27:15;;;;;;;0.10;0.10;;;;;;;;;;4989923;28;20260;-71
2023/02/23 15:29:41;;;;;;;0.10;0.10;;;;;;;;;;4985017;28;20228;-72
2023/02/23 15:32:14;;;;;;;0.10;0.10;;;;;;;;;;4989825;28;20236;-72
2023/02/23 15:34:41;;;;;;;0.10;0.10;;;;;;;;;;4984972;28;20374;-73
2023/02/23 15:37:11;;;;;;;0.10;0.10;;;;;;;;;;4989896;28;20261;-73
2023/02/23 15:39:38;;;;;;;0.10;0.10;;;;;;;;;;4984912;28;20203;-72
2023/02/23 15:42:06;;;;;;;0.10;0.10;;;;;;;;;;4989474;28;20239;-72
2023/02/23 15:44:33;;;;;;;0.10;0.10;;;;;;;;;;4984477;28;20248;-71
2023/02/23 15:47:01;;;;;;;0.10;0.10;;;;;;;;;;4991918;28;20243;-70
2023/02/23 15:49:39;;;;;;;0.10;0.10;;;;;;;;;;4989643;28;20241;-71
2023/02/23 15:52:06;;;;;;;0.10;0.10;;;;;;;;;;4993369;28;20236;-72
2023/02/23 15:54:36;;;;;;;0.10;0.10;;;;;;;;;;4989019;28;20282;-72
2023/02/23 15:57:05;;;;;;;0.10;0.10;;;;;;;;;;4993018;28;20256;-72
2023/02/23 15:59:34;;;;;;;0.10;0.10;;;;;;;;;;4989036;28;20213;-71
2023/02/23 16:02:02;;;;;;;0.10;0.10;;;;;;;;;;4992898;28;20259;-73
2023/02/23 16:04:32;;;;;;;0.10;0.10;;;;;;;;;;4988757;28;20581;-74
2023/02/23 16:07:10;;;;;;;0.10;0.10;;;;;;;;;;4992322;28;20413;-74
2023/02/23 16:09:37;;;;;;;0.10;0.10;;;;;;;;;;4988551;28;20518;-72
2023/02/23 16:12:05;;;;;;;0.10;0.10;;;;;;;;;;4992904;28;20446;-73
2023/02/23 16:14:33;;;;;;;0.10;0.10;;;;;;;;;;4988854;28;20539;-72